createdAt,value
2023-01-27T00:02:23.112Z,27.3
2023-01-27T00:07:15.330Z,25.3
2023-01-27T00:12:06.628Z,24.9
2023-01-27T00:16:58.613Z,26.2
2023-01-27T00:21:49.870Z,27.5
2023-01-27T00:26:42.119Z,25.1
2023-01-27T00:31:49.689Z,24.9
2023-01-27T00:36:56.949Z,26.4
2023-01-27T00:41:48.647Z,26.4
2023-01-27T00:46:40.159Z,24.9
2023-01-27T00:51:45.737Z,25.6
2023-01-27T00:56:36.811Z,26.6
2023-01-27T01:01:43.830Z,26.6
2023-01-27T01:06:50.536Z,23.4
2023-01-27T01:11:57.842Z,26.1
2023-01-27T01:17:05.429Z,26.3
2023-01-27T01:22:11.862Z,24.9
2023-01-27T01:27:18.495Z,25.7
2023-01-27T01:32:42.275Z,27.2
2023-01-27T01:38:03.837Z,24.9
2023-01-27T01:43:29.727Z,25.2
2023-01-27T01:48:52.373Z,26.7
2023-01-27T01:54:14.162Z,25.3
2023-01-27T01:59:38.500Z,24.8
2023-01-27T02:05:01.962Z,26.3
2023-01-27T02:10:23.536Z,26.1
2023-01-27T02:15:46.719Z,24.8
2023-01-27T02:20:54.140Z,25.8
2023-01-27T02:26:16.719Z,27.3
2023-01-27T02:31:08.922Z,24.8
2023-01-27T02:36:20.497Z,25.4
2023-01-27T02:41:42.829Z,26.7
2023-01-27T02:47:05.956Z,25.2
2023-01-27T02:52:28.534Z,24.7
2023-01-27T02:57:50.466Z,26.3
2023-01-27T03:03:12.536Z,26.2
2023-01-27T03:08:35.773Z,24.7
2023-01-27T03:13:58.324Z,25.9
2023-01-27T03:19:05.866Z,27.3
2023-01-27T03:24:28.410Z,24.9
2023-01-27T03:29:35.757Z,25.4
2023-01-27T03:34:59.178Z,27.1
2023-01-27T03:40:21.711Z,24.9
2023-01-27T03:45:44.318Z,25.4
2023-01-27T03:51:07.169Z,26.8
2023-01-27T03:56:29.914Z,25
2023-01-27T04:01:52.778Z,24.8
2023-01-27T04:07:15.069Z,26.6
2023-01-27T04:12:38.577Z,25.4
2023-01-27T04:18:01.376Z,24.6
2023-01-27T04:23:07.931Z,26.3
2023-01-27T04:28:43.720Z,26.6
2023-01-27T04:34:06.812Z,24.7
2023-01-27T04:39:19.664Z,26
2023-01-27T04:44:42.814Z,27.4
2023-01-27T04:49:49.938Z,24.8
2023-01-27T04:54:56.783Z,25.8
2023-01-27T05:00:04.759Z,26.9
2023-01-27T05:05:12.271Z,25
2023-01-27T05:10:20.468Z,24.8
2023-01-27T05:15:27.492Z,26.5
2023-01-27T05:20:34.944Z,26.3
2023-01-27T05:25:43.592Z,24.7
2023-01-27T05:31:06.059Z,25.9
2023-01-27T05:36:29.437Z,27.1
2023-01-27T05:41:36.485Z,23.4
2023-01-27T05:46:59.811Z,25.4
2023-01-27T05:52:23.912Z,27.2
2023-01-27T05:57:32.534Z,24.8
2023-01-27T06:02:41.974Z,25.8
2023-01-27T06:07:48.838Z,26.9
2023-01-27T06:12:56.064Z,25
2023-01-27T06:18:04.382Z,24.9
2023-01-27T06:23:10.827Z,26.5
2023-01-27T06:28:46.696Z,26
2023-01-27T06:34:10.253Z,24.6
2023-01-27T06:39:32.903Z,26.2
2023-01-27T06:44:55.797Z,27
2023-01-27T06:50:19.117Z,24.7
2023-01-27T06:55:42.071Z,25.9
2023-01-27T07:01:07.672Z,27.4
2023-01-27T07:06:32.565Z,24.6
2023-01-27T07:12:07.055Z,25.8
2023-01-27T07:17:31.727Z,27.3
2023-01-27T07:22:56.677Z,24.8
2023-01-27T07:28:13.975Z,25.8
2023-01-27T07:33:37.808Z,26.9
2023-01-27T07:39:02.993Z,25.1
2023-01-27T07:44:27.604Z,25
2023-01-27T07:49:34.357Z,26.6
2023-01-27T07:54:41.409Z,26.6
2023-01-27T08:00:04.202Z,23.6
2023-01-27T08:05:43.456Z,26.3
2023-01-27T08:11:09.462Z,25.4
2023-01-27T08:16:32.584Z,24.6
2023-01-27T08:21:55.558Z,26.4
2023-01-27T08:27:18.550Z,25.8
2023-01-27T08:32:41.927Z,24.6
2023-01-27T08:38:06.714Z,26.3
2023-01-27T08:43:29.468Z,26.2
2023-01-27T08:48:52.449Z,24.6
2023-01-27T08:54:14.959Z,26.3
2023-01-27T08:59:37.689Z,26.8
2023-01-27T09:05:01.535Z,24.7
2023-01-27T09:10:33.966Z,25.9
2023-01-27T09:15:57.015Z,27.4
2023-01-27T09:21:19.534Z,24.7
2023-01-27T09:26:42.446Z,25.8
2023-01-27T09:32:14.775Z,27.3
2023-01-27T09:37:37.558Z,24.8
2023-01-27T09:43:00.512Z,25.7
2023-01-27T09:48:25.531Z,27.1
2023-01-27T09:53:57.105Z,24.8
2023-01-27T09:59:19.340Z,25.7
2023-01-27T10:04:42.582Z,26.9
2023-01-27T10:10:05.733Z,26.9
2023-01-27T10:15:28.950Z,24.5
2023-01-27T10:20:51.891Z,26.7
2023-01-27T10:26:14.499Z,25.3
2023-01-27T10:31:36.921Z,24.6
2023-01-27T10:37:00.158Z,26.4
2023-01-27T10:42:22.920Z,25.6
2023-01-27T10:47:46.119Z,24.6
2023-01-27T10:53:09.014Z,26.3
2023-01-27T10:58:31.013Z,26.4
2023-01-27T11:04:57.572Z,24.6
2023-01-27T11:10:20.262Z,26.3
2023-01-27T11:15:43.311Z,26.3
2023-01-27T11:21:05.952Z,24.6
2023-01-27T11:26:42.398Z,26.1
2023-01-27T11:32:05.729Z,26.9
2023-01-27T11:37:28.180Z,24.6
2023-01-27T11:43:05.508Z,25.1
2023-01-27T11:48:27.373Z,24.6
2023-01-27T11:53:50.460Z,24.3
2023-01-27T11:59:13.272Z,23.7
2023-01-27T12:04:37.342Z,24.3
2023-01-27T12:10:00.121Z,26.1
2023-01-27T12:15:26.265Z,27.3
2023-01-27T12:20:34.200Z,24.3
2023-01-27T12:25:56.610Z,24.9
2023-01-27T12:31:19.978Z,24.4
2023-01-27T12:36:43.488Z,24.2
2023-01-27T12:42:06.527Z,23.6
2023-01-27T12:47:31.216Z,24.1
2023-01-27T12:52:53.664Z,25.9
2023-01-27T12:58:16.228Z,24.1
2023-01-27T13:03:42.571Z,22.4
2023-01-27T13:09:05.155Z,25.4
2023-01-27T13:14:28.181Z,27.2
2023-01-27T13:19:36.055Z,24.4
2023-01-27T13:24:43.484Z,24.2
2023-01-27T13:30:01.009Z,24.6
2023-01-27T13:35:25.484Z,24
2023-01-27T13:40:33.247Z,23.8
2023-01-27T13:45:55.657Z,23.2
2023-01-27T13:51:03.935Z,22.6
2023-01-27T13:56:13.991Z,22.1
2023-01-27T14:01:37.086Z,21.6
2023-01-27T14:12:09.390Z,20.7
2023-01-27T14:17:29.887Z,20.3
2023-01-27T14:22:52.509Z,19.9
2023-01-27T14:28:16.216Z,19.5
2023-01-27T14:33:39.185Z,19.1
2023-01-27T14:39:01.750Z,18.8
2023-01-27T14:44:26.944Z,18.4
2023-01-27T14:50:10.408Z,18.1
2023-01-27T14:55:33.883Z,17.9
2023-01-27T15:00:56.677Z,17.6
2023-01-27T15:06:20.947Z,17.3
2023-01-27T15:16:50.562Z,16.8
2023-01-27T15:22:13.395Z,16.5
2023-01-27T15:27:36.004Z,16.3
2023-01-27T15:32:59.909Z,16
2023-01-27T15:38:23.447Z,15.8
2023-01-27T15:43:45.367Z,15.6
2023-01-27T15:49:08.147Z,15.3
2023-01-27T15:54:33.100Z,15.1
2023-01-27T15:59:59.283Z,14.9
2023-01-27T16:05:23.881Z,14.9
2023-01-27T16:10:46.751Z,14.8
2023-01-27T16:16:10.027Z,14.8
2023-01-27T16:21:17.322Z,14.8
2023-01-27T16:26:40.807Z,14.8
2023-01-27T16:32:03.560Z,14.8
2023-01-27T16:37:26.722Z,14.8
2023-01-27T16:42:49.243Z,14.8
2023-01-27T16:48:25.007Z,14.8
2023-01-27T16:54:01.590Z,14.8
2023-01-27T16:59:37.676Z,14.8
2023-01-27T17:05:11.609Z,14.9
2023-01-27T17:10:51.473Z,15
2023-01-27T17:16:28.962Z,15.3
2023-01-27T17:22:01.914Z,15.5
2023-01-27T17:27:26.179Z,15.7
2023-01-27T17:32:54.261Z,15.8
2023-01-27T17:38:29.516Z,15.9
2023-01-27T17:43:57.429Z,15.9
2023-01-27T17:49:26.879Z,15.9
2023-01-27T17:54:56.564Z,15.9
2023-01-27T18:00:11.909Z,15.9
2023-01-27T18:05:23.755Z,15.9
2023-01-27T18:10:49.836Z,15.8
2023-01-27T18:16:18.502Z,15.8
2023-01-27T18:21:47.551Z,15.8
2023-01-27T18:27:18.992Z,15.8
2023-01-27T18:32:30.471Z,15.8
2023-01-27T18:37:46.540Z,15.8
2023-01-27T18:43:21.081Z,15.8
2023-01-27T18:49:02.932Z,15.8
2023-01-27T18:54:44.583Z,15.9
2023-01-27T19:00:22.918Z,16.1
2023-01-27T19:06:01.005Z,16.2
2023-01-27T19:11:34.461Z,16.2
2023-01-27T19:17:01.594Z,16.2
2023-01-27T19:22:29.538Z,16.2
2023-01-27T19:27:31.609Z,16.2
2023-01-27T19:32:44.993Z,16.3
2023-01-27T19:38:14.269Z,16.3
2023-01-27T19:43:45.089Z,16.3
2023-01-27T19:49:13.493Z,16.3
2023-01-27T19:54:40.687Z,16.3
2023-01-27T20:00:07.346Z,16.3
2023-01-27T20:05:38.085Z,16.2
2023-01-27T20:11:07.902Z,16.2
2023-01-27T20:16:34.478Z,16.1
2023-01-27T20:22:02.870Z,16.1
2023-01-27T20:27:30.555Z,16
2023-01-27T20:32:56.250Z,15.9
2023-01-27T20:38:04.947Z,15.9
2023-01-27T20:43:17.244Z,15.8
2023-01-27T20:48:50.087Z,15.8
2023-01-27T20:54:13.168Z,15.7
2023-01-27T20:59:36.066Z,15.6
2023-01-27T21:04:58.804Z,15.6
2023-01-27T21:10:22.366Z,15.5
2023-01-27T21:15:45.262Z,26.7
2023-01-27T21:20:53.145Z,26.4
2023-01-27T21:26:16.330Z,25.7
2023-01-27T21:31:26.858Z,24.9
2023-01-27T21:36:34.052Z,24.8
2023-01-27T21:41:57.107Z,27.1
2023-01-27T21:47:20.206Z,26.3
2023-01-27T21:52:42.784Z,25.8
2023-01-27T21:58:05.940Z,25.3
2023-01-27T22:03:30.449Z,24.9
2023-01-27T22:08:53.470Z,26.8
2023-01-27T22:14:17.075Z,26
2023-01-27T22:19:24.224Z,25.5
2023-01-27T22:24:30.390Z,25.2
2023-01-27T22:29:52.407Z,24.9
2023-01-27T22:35:15.537Z,26.5
2023-01-27T22:40:38.428Z,25.9
2023-01-27T22:46:01.264Z,25.2
2023-01-27T22:51:24.092Z,25.1
2023-01-27T22:56:45.970Z,24.9
2023-01-27T23:02:08.657Z,26.4
2023-01-27T23:07:32.482Z,25.8
2023-01-27T23:12:54.033Z,25
2023-01-27T23:18:17.412Z,26
2023-01-27T23:23:40.311Z,27.3
2023-01-27T23:29:02.595Z,25.1
2023-01-27T23:34:32.507Z,25.7
2023-01-27T23:40:13.401Z,27.1
2023-01-27T23:45:35.474Z,25.1
2023-01-27T23:50:58.066Z,25.3
2023-01-27T23:56:21.226Z,26.7
